createdAt,value
2023-04-11T00:01:29.690Z,6.30
2023-04-11T00:03:57.278Z,6.28
2023-04-11T00:06:26.168Z,6.15
2023-04-11T00:08:53.477Z,5.63
2023-04-11T00:11:21.072Z,5.72
2023-04-11T00:13:48.789Z,5.72
2023-04-11T00:16:16.839Z,5.20
2023-04-11T00:18:45.058Z,5.50
2023-04-11T00:21:12.215Z,6.10
2023-04-11T00:23:39.148Z,6.22
2023-04-11T00:26:06.409Z,6.38
2023-04-11T00:33:26.249Z,5.60
2023-04-11T00:35:54.143Z,6.05
2023-04-11T00:38:21.264Z,5.70
2023-04-11T00:40:48.178Z,6.30
2023-04-11T00:43:15.468Z,5.93
2023-04-11T00:45:42.939Z,5.60
2023-04-11T00:48:10.415Z,5.60
2023-04-11T00:50:41.892Z,6.32
2023-04-11T00:55:37.678Z,6.82
2023-04-11T00:58:06.260Z,7.60
2023-04-11T01:00:36.296Z,6.70
2023-04-11T01:03:03.455Z,5.93
2023-04-11T01:05:33.365Z,6.05
2023-04-11T01:08:01.342Z,6.40
2023-04-11T01:10:30.902Z,6.40
2023-04-11T01:13:01.368Z,6.35
2023-04-11T01:15:28.678Z,5.28
2023-04-11T01:17:57.909Z,5.45
2023-04-11T01:20:26.454Z,6.10
2023-04-11T01:22:54.357Z,5.38
2023-04-11T01:25:22.431Z,6.63
2023-04-11T01:27:49.607Z,6.25
2023-04-11T01:30:16.837Z,7.25
2023-04-11T01:32:43.778Z,6.60
2023-04-11T01:35:14.181Z,6.03
2023-04-11T01:37:41.242Z,5.90
2023-04-11T01:40:08.818Z,6.50
2023-04-11T01:42:37.487Z,5.65
2023-04-11T01:45:07.053Z,5.35
2023-04-11T01:47:34.377Z,4.57
2023-04-11T01:50:01.560Z,6.25
2023-04-11T01:52:28.595Z,5.28
2023-04-11T01:54:55.752Z,5.30
2023-04-11T01:57:22.709Z,5.95
2023-04-11T01:59:49.748Z,6.07
2023-04-11T02:02:17.020Z,5.40
2023-04-11T02:04:44.281Z,5.55
2023-04-11T02:07:14.819Z,5.93
2023-04-11T02:09:41.880Z,4.80
2023-04-11T02:12:08.794Z,6.03
2023-04-11T02:14:43.993Z,6.07
2023-04-11T02:17:13.244Z,5.07
2023-04-11T02:19:45.590Z,5.80
2023-04-11T02:22:13.283Z,5.47
2023-04-11T02:24:40.614Z,6.03
2023-04-11T02:27:08.221Z,5.70
2023-04-11T02:29:35.464Z,5.13
2023-04-11T02:32:02.536Z,4.18
2023-04-11T02:34:29.591Z,6.28
2023-04-11T02:36:56.566Z,6.32
2023-04-11T02:39:26.431Z,6.53
2023-04-11T02:41:55.817Z,6.15
2023-04-11T02:44:22.727Z,6.35
2023-04-11T02:46:50.698Z,5.45
2023-04-11T02:49:17.793Z,5.07
2023-04-11T02:51:47.763Z,4.93
2023-04-11T02:54:14.692Z,4.80
2023-04-11T02:56:43.384Z,4.82
2023-04-11T02:59:10.466Z,6.55
2023-04-11T03:01:38.298Z,6.35
2023-04-11T03:04:07.273Z,6.65
2023-04-11T03:06:47.759Z,6.82
2023-04-11T03:09:15.166Z,4.68
2023-04-11T03:11:42.881Z,5.80
2023-04-11T03:14:10.069Z,4.90
2023-04-11T03:16:37.166Z,5.63
2023-04-11T03:19:05.987Z,5.80
2023-04-11T03:21:33.058Z,4.35
2023-04-11T03:24:00.007Z,6.15
2023-04-11T03:26:27.183Z,5.13
2023-04-11T03:28:58.702Z,5.55
2023-04-11T03:31:30.371Z,5.22
2023-04-11T03:33:59.279Z,6.25
2023-04-11T03:36:29.953Z,6.40
2023-04-11T03:39:03.822Z,4.63
2023-04-11T03:41:31.638Z,5.60
2023-04-11T03:43:58.978Z,7.47
2023-04-11T03:46:26.244Z,4.53
2023-04-11T03:48:53.384Z,6.25
2023-04-11T03:51:21.921Z,6.57
2023-04-11T03:54:00.551Z,6.97
2023-04-11T03:56:36.872Z,6.68
2023-04-11T03:59:04.871Z,5.38
2023-04-11T04:01:52.231Z,5.68
2023-04-11T04:04:19.233Z,5.97
2023-04-11T04:06:57.062Z,5.25
2023-04-11T04:09:31.730Z,5.15
2023-04-11T04:11:58.792Z,5.35
2023-04-11T04:14:36.984Z,5.75
2023-04-11T04:17:04.124Z,6.22
2023-04-11T04:19:31.292Z,5.80
2023-04-11T04:21:58.392Z,4.35
2023-04-11T04:24:29.698Z,5.30
2023-04-11T04:27:19.689Z,5.65
2023-04-11T04:29:53.798Z,5.30
2023-04-11T04:32:35.729Z,5.22
2023-04-11T04:35:10.341Z,5.32
2023-04-11T04:37:45.067Z,5.82
2023-04-11T04:40:20.834Z,5.97
2023-04-11T04:43:02.264Z,5.55
2023-04-11T04:45:51.997Z,4.93
2023-04-11T04:48:26.581Z,5.75
2023-04-11T04:50:53.841Z,6.35
2023-04-11T04:53:21.215Z,5.78
2023-04-11T04:55:53.750Z,5.63
2023-04-11T04:58:21.245Z,6.30
2023-04-11T05:00:55.921Z,6.50
2023-04-11T05:03:27.017Z,5.53
2023-04-11T05:05:54.457Z,5.80
2023-04-11T05:08:21.829Z,5.57
2023-04-11T05:10:48.859Z,7.15
2023-04-11T05:13:16.712Z,6.10
2023-04-11T05:15:51.212Z,5.63
2023-04-11T05:18:18.872Z,7.18
2023-04-11T05:20:46.263Z,5.50
2023-04-11T05:23:18.849Z,6.53
2023-04-11T05:25:46.392Z,5.55
2023-04-11T05:28:15.583Z,5.80
2023-04-11T05:30:42.582Z,5.75
2023-04-11T05:33:12.730Z,5.75
2023-04-11T05:35:42.245Z,4.57
2023-04-11T05:38:09.972Z,5.68
2023-04-11T05:40:37.151Z,5.78
2023-04-11T05:43:04.107Z,4.22
2023-04-11T05:45:31.128Z,4.38
2023-04-11T05:47:58.169Z,5.85
2023-04-11T05:50:25.931Z,6.88
2023-04-11T05:52:52.897Z,6.20
2023-04-11T05:55:19.759Z,7.20
2023-04-11T05:57:46.654Z,7.40
2023-04-11T06:00:16.478Z,7.50
2023-04-11T06:02:44.211Z,7.60
2023-04-11T06:05:12.118Z,8.10
2023-04-11T06:07:40.242Z,7.78
2023-04-11T06:10:08.149Z,7.05
2023-04-11T06:12:35.501Z,6.80
2023-04-11T06:15:02.954Z,6.43
2023-04-11T06:17:29.903Z,5.97
2023-04-11T06:19:56.980Z,6.07
2023-04-11T06:22:23.901Z,7.35
2023-04-11T06:24:50.880Z,7.22
2023-04-11T06:27:17.818Z,7.85
2023-04-11T06:29:44.744Z,7.43
2023-04-11T06:32:12.449Z,6.53
2023-04-11T06:34:40.351Z,5.35
2023-04-11T06:37:08.011Z,6.90
2023-04-11T06:39:35.837Z,6.80
2023-04-11T06:42:03.492Z,6.93
2023-04-11T06:44:32.678Z,6.65
2023-04-11T06:46:59.692Z,5.95
2023-04-11T06:49:28.260Z,6.80
2023-04-11T06:51:55.963Z,6.10
2023-04-11T06:54:23.737Z,7.07
2023-04-11T06:56:50.762Z,7.78
2023-04-11T06:59:22.275Z,7.38
2023-04-11T07:01:50.498Z,6.05
2023-04-11T07:04:17.580Z,5.80
2023-04-11T07:06:44.594Z,7.35
2023-04-11T07:09:12.669Z,7.22
2023-04-11T07:11:39.853Z,6.47
2023-04-11T07:14:07.067Z,6.78
2023-04-11T07:16:34.130Z,7.30
2023-04-11T07:19:01.151Z,7.55
2023-04-11T07:21:28.505Z,7.15
2023-04-11T07:23:55.736Z,7.20
2023-04-11T07:26:23.938Z,7.00
2023-04-11T07:28:51.283Z,6.55
2023-04-11T07:31:21.448Z,7.00
2023-04-11T07:33:48.455Z,7.32
2023-04-11T07:36:16.258Z,6.63
2023-04-11T07:38:43.335Z,6.63
2023-04-11T07:41:10.447Z,6.80
2023-04-11T07:43:37.409Z,7.63
2023-04-11T07:46:04.363Z,7.13
2023-04-11T07:48:32.422Z,6.65
2023-04-11T07:50:59.379Z,6.53
2023-04-11T07:53:26.935Z,6.63
2023-04-11T07:55:53.923Z,6.40
2023-04-11T07:58:21.020Z,6.05
2023-04-11T08:00:48.649Z,6.05
2023-04-11T08:03:17.051Z,6.20
2023-04-11T08:05:44.304Z,5.88
2023-04-11T08:08:11.255Z,6.05
2023-04-11T08:10:38.170Z,5.82
2023-04-11T08:13:05.080Z,5.78
2023-04-11T08:15:32.000Z,5.47
2023-04-11T08:17:59.756Z,6.40
2023-04-11T08:20:26.768Z,6.15
2023-04-11T08:22:53.641Z,5.80
2023-04-11T08:25:22.914Z,6.13
2023-04-11T08:27:50.887Z,5.75
2023-04-11T08:30:18.056Z,6.05
2023-04-11T08:32:45.080Z,5.40
2023-04-11T08:35:12.149Z,5.65
2023-04-11T08:37:39.305Z,5.10
2023-04-11T08:40:07.082Z,5.57
2023-04-11T08:42:35.312Z,6.20
2023-04-11T08:45:08.721Z,5.60
2023-04-11T08:47:36.979Z,4.65
2023-04-11T08:50:05.775Z,5.43
2023-04-11T08:52:34.168Z,5.50
2023-04-11T08:55:01.773Z,5.40
2023-04-11T08:57:33.357Z,5.43
2023-04-11T09:00:29.851Z,5.50
2023-04-11T09:02:59.318Z,5.00
2023-04-11T09:05:38.447Z,5.10
2023-04-11T09:08:15.994Z,5.68
2023-04-11T09:10:46.531Z,5.32
2023-04-11T09:13:27.677Z,5.25
2023-04-11T09:16:09.497Z,4.78
2023-04-11T09:18:42.270Z,5.30
2023-04-11T09:21:14.856Z,4.97
2023-04-11T09:23:41.974Z,4.78
2023-04-11T09:26:11.960Z,5.00
2023-04-11T09:28:44.671Z,4.47
2023-04-11T09:31:14.912Z,4.15
2023-04-11T09:33:57.310Z,40.35
2023-04-11T09:36:27.186Z,5.10
2023-04-11T09:38:54.331Z,5.07
2023-04-11T09:41:32.592Z,4.70
2023-04-11T09:44:00.288Z,5.35
2023-04-11T09:46:27.315Z,5.05
2023-04-11T09:48:55.381Z,4.85
2023-04-11T09:51:34.317Z,5.00
2023-04-11T09:54:04.216Z,4.82
2023-04-11T09:56:32.091Z,4.97
2023-04-11T09:59:00.995Z,4.75
2023-04-11T10:01:28.262Z,4.35
2023-04-11T10:03:56.757Z,5.15
2023-04-11T10:06:40.992Z,5.13
2023-04-11T10:09:15.674Z,4.47
2023-04-11T10:11:46.147Z,4.68
2023-04-11T10:14:39.336Z,4.18
2023-04-11T10:17:21.419Z,3.60
2023-04-11T10:19:54.183Z,6.10
2023-04-11T10:22:43.522Z,4.18
2023-04-11T10:25:26.852Z,8.68
2023-04-11T10:28:01.383Z,4.72
2023-04-11T10:31:01.928Z,4.10
2023-04-11T10:33:29.063Z,12.43
2023-04-11T10:36:05.699Z,4.93
2023-04-11T10:38:47.284Z,4.45
2023-04-11T10:41:31.386Z,7.40
2023-04-11T10:44:25.025Z,21.63
2023-04-11T10:46:54.351Z,4.60
2023-04-11T10:49:37.595Z,4.65
2023-04-11T10:52:24.502Z,3.90
2023-04-11T10:54:53.200Z,4.57
2023-04-11T10:57:21.198Z,3.65
2023-04-11T10:59:51.006Z,3.90
2023-04-11T11:02:19.854Z,9.57
2023-04-11T11:04:48.724Z,20.38
2023-04-11T11:07:17.058Z,5.90
2023-04-11T11:09:51.501Z,4.00
2023-04-11T11:12:18.621Z,3.88
2023-04-11T11:14:47.154Z,3.67
2023-04-11T11:17:16.291Z,3.42
2023-04-11T11:19:47.857Z,3.90
2023-04-11T11:24:42.724Z,3.50
2023-04-11T11:27:20.092Z,3.40
2023-04-11T11:29:47.113Z,3.25
2023-04-11T11:32:28.031Z,4.43
2023-04-11T11:34:55.531Z,5.50
2023-04-11T11:37:23.286Z,3.60
2023-04-11T11:39:50.870Z,3.50
2023-04-11T11:42:18.387Z,3.53
2023-04-11T11:44:45.485Z,3.50
2023-04-11T11:47:15.405Z,3.40
2023-04-11T11:49:56.151Z,3.55
2023-04-11T11:52:41.306Z,3.72
2023-04-11T11:55:18.658Z,3.10
2023-04-11T11:57:47.027Z,3.63
2023-04-11T12:00:15.079Z,3.70
2023-04-11T12:02:43.152Z,3.42
2023-04-11T12:05:13.784Z,3.58
2023-04-11T12:07:41.009Z,4.20
2023-04-11T12:10:11.985Z,3.72
2023-04-11T12:12:43.714Z,3.67
2023-04-11T12:15:22.889Z,3.08
2023-04-11T12:17:51.921Z,3.40
2023-04-11T12:20:23.621Z,3.65
2023-04-11T12:22:52.262Z,3.65
2023-04-11T12:25:21.909Z,4.00
2023-04-11T12:27:49.073Z,3.55
2023-04-11T12:30:16.110Z,3.40
2023-04-11T12:32:44.736Z,3.22
2023-04-11T12:35:13.013Z,3.13
2023-04-11T12:37:40.454Z,3.15
2023-04-11T12:40:11.288Z,2.97
2023-04-11T12:42:55.263Z,2.87
2023-04-11T12:45:23.507Z,3.13
2023-04-11T12:47:50.514Z,2.85
2023-04-11T12:50:17.571Z,3.15
2023-04-11T12:52:44.739Z,2.90
2023-04-11T12:55:13.249Z,2.83
2023-04-11T12:57:41.022Z,2.85
2023-04-11T13:00:09.038Z,2.75
2023-04-11T13:02:42.869Z,3.08
2023-04-11T13:05:14.105Z,2.80
2023-04-11T13:07:41.843Z,2.50
2023-04-11T13:10:09.285Z,2.25
2023-04-11T13:12:44.698Z,2.80
2023-04-11T13:15:16.835Z,2.45
2023-04-11T13:17:44.452Z,2.00
2023-04-11T13:20:12.939Z,2.28
2023-04-11T13:22:41.602Z,1.73
2023-04-11T13:25:09.653Z,2.20
2023-04-11T13:27:37.735Z,2.00
2023-04-11T13:30:05.211Z,1.90
2023-04-11T13:32:32.584Z,2.00
2023-04-11T13:34:59.818Z,1.92
2023-04-11T13:37:26.937Z,1.88
2023-04-11T13:39:53.888Z,1.75
2023-04-11T13:42:22.587Z,2.47
2023-04-11T13:44:49.574Z,2.10
2023-04-11T13:47:16.485Z,2.00
2023-04-11T13:49:43.468Z,2.13
2023-04-11T13:52:10.702Z,2.35
2023-04-11T13:54:39.000Z,1.85
2023-04-11T13:57:09.486Z,1.98
2023-04-11T13:59:36.623Z,2.00
2023-04-11T14:02:03.868Z,1.92
2023-04-11T14:04:31.449Z,1.80
2023-04-11T14:06:58.575Z,2.08
2023-04-11T14:09:25.601Z,1.85
2023-04-11T14:11:52.536Z,1.70
2023-04-11T14:14:19.513Z,1.20
2023-04-11T14:16:46.495Z,1.10
2023-04-11T14:19:13.463Z,2.13
2023-04-11T14:21:40.626Z,1.35
2023-04-11T14:24:07.772Z,1.08
2023-04-11T14:26:34.755Z,1.13
2023-04-11T14:29:02.736Z,1.50
2023-04-11T14:31:29.784Z,1.70
2023-04-11T14:33:56.974Z,1.52
2023-04-11T14:36:24.173Z,1.50
2023-04-11T14:38:51.175Z,1.67
2023-04-11T14:41:19.338Z,1.60
2023-04-11T14:43:46.325Z,1.80
2023-04-11T14:46:13.444Z,2.00
2023-04-11T14:48:40.549Z,1.52
2023-04-11T14:51:07.729Z,1.50
2023-04-11T14:53:34.951Z,1.77
2023-04-11T14:56:05.978Z,1.77
2023-04-11T14:58:33.847Z,1.40
2023-04-11T15:01:01.052Z,1.70
2023-04-11T15:03:28.539Z,1.60
2023-04-11T15:05:56.270Z,1.40
2023-04-11T15:08:23.769Z,1.40
2023-04-11T15:10:54.758Z,1.20
2023-04-11T15:13:23.021Z,1.23
2023-04-11T15:15:50.410Z,1.00
2023-04-11T15:18:22.512Z,1.00
2023-04-11T15:20:50.445Z,0.80
2023-04-11T15:23:19.745Z,0.93
2023-04-11T15:25:48.082Z,0.75
2023-04-11T15:28:22.900Z,0.73
2023-04-11T15:30:51.965Z,0.80
2023-04-11T15:33:21.150Z,0.75
2023-04-11T15:35:48.373Z,1.30
2023-04-11T15:38:16.336Z,0.63
2023-04-11T15:40:44.088Z,0.60
2023-04-11T15:43:11.627Z,0.55
2023-04-11T15:45:39.916Z,0.80
2023-04-11T15:48:07.245Z,0.70
2023-04-11T15:50:34.567Z,0.70
2023-04-11T15:53:07.918Z,0.50
2023-04-11T15:55:41.526Z,0.40
2023-04-11T15:58:09.508Z,0.38
2023-04-11T16:00:38.127Z,0.38
2023-04-11T16:03:08.423Z,0.50
2023-04-11T16:05:42.026Z,0.30
2023-04-11T16:08:09.400Z,0.50
2023-04-11T16:10:36.759Z,0.25
2023-04-11T16:13:04.035Z,0.50
2023-04-11T16:15:32.443Z,0.50
2023-04-11T16:17:59.700Z,0.60
2023-04-11T16:20:27.246Z,0.40
2023-04-11T16:22:54.436Z,0.40
2023-04-11T16:25:21.899Z,0.50
2023-04-11T16:27:50.335Z,0.30
2023-04-11T16:30:17.608Z,0.30
2023-04-11T16:32:44.952Z,0.17
2023-04-11T16:35:12.562Z,0.30
2023-04-11T16:37:39.792Z,0.30
2023-04-11T16:40:13.773Z,0.38
2023-04-11T16:42:41.272Z,0.30
2023-04-11T16:45:12.718Z,0.30
2023-04-11T16:47:39.950Z,0.35
2023-04-11T16:50:07.793Z,0.28
2023-04-11T16:52:35.149Z,0.25
2023-04-11T16:55:03.452Z,0.30
2023-04-11T16:57:33.432Z,0.40
2023-04-11T17:00:01.224Z,0.38
2023-04-11T17:02:29.859Z,0.20
2023-04-11T17:04:57.344Z,0.28
2023-04-11T17:07:25.119Z,0.50
2023-04-11T17:09:52.301Z,0.50
2023-04-11T17:12:19.871Z,0.60
2023-04-11T17:14:47.741Z,0.47
2023-04-11T17:17:15.182Z,0.40
2023-04-11T17:19:42.908Z,0.40
2023-04-11T17:22:11.314Z,0.30
2023-04-11T17:24:38.534Z,0.40
2023-04-11T17:27:05.919Z,1.02
2023-04-11T17:29:33.200Z,0.98
2023-04-11T17:32:02.255Z,0.40
2023-04-11T17:34:29.598Z,0.63
2023-04-11T17:36:57.197Z,0.40
2023-04-11T17:39:24.533Z,0.52
2023-04-11T17:41:51.767Z,0.40
2023-04-11T17:44:19.497Z,0.63
2023-04-11T17:46:46.857Z,0.55
2023-04-11T17:49:15.526Z,0.47
2023-04-11T17:51:49.113Z,0.70
2023-04-11T17:54:34.083Z,0.60
2023-04-11T17:57:03.760Z,4.30
2023-04-11T17:59:31.490Z,1.80
2023-04-11T18:01:59.693Z,0.82
2023-04-11T18:04:27.207Z,0.60
2023-04-11T18:06:55.148Z,0.90
2023-04-11T18:09:26.969Z,0.80
2023-04-11T18:11:54.338Z,0.88
2023-04-11T18:14:21.703Z,0.68
2023-04-11T18:16:49.234Z,1.10
2023-04-11T18:19:16.880Z,0.90
2023-04-11T18:21:44.422Z,1.17
2023-04-11T18:24:11.779Z,1.25
2023-04-11T18:26:41.128Z,0.85
2023-04-11T18:29:08.476Z,0.80
2023-04-11T18:31:35.814Z,0.80
2023-04-11T18:34:06.900Z,0.68
2023-04-11T18:36:35.169Z,1.00
2023-04-11T18:39:02.932Z,1.20
2023-04-11T18:41:32.801Z,1.90
2023-04-11T18:44:02.098Z,1.85
2023-04-11T18:46:30.424Z,2.08
2023-04-11T18:48:58.060Z,2.25
2023-04-11T18:51:26.963Z,1.75
2023-04-11T18:53:55.000Z,1.50
2023-04-11T18:56:25.106Z,1.70
2023-04-11T18:58:55.936Z,1.70
2023-04-11T19:01:28.449Z,1.50
2023-04-11T19:03:58.301Z,1.33
2023-04-11T19:06:26.462Z,1.27
2023-04-11T19:08:54.101Z,1.08
2023-04-11T19:11:22.050Z,1.30
2023-04-11T19:13:49.568Z,1.17
2023-04-11T19:16:17.674Z,1.35
2023-04-11T19:18:46.487Z,1.50
2023-04-11T19:21:14.012Z,1.10
2023-04-11T19:23:42.009Z,1.50
2023-04-11T19:26:15.314Z,0.82
2023-04-11T19:28:43.838Z,0.63
2023-04-11T19:31:11.488Z,1.55
2023-04-11T19:33:39.141Z,1.10
2023-04-11T19:36:08.285Z,0.90
2023-04-11T19:38:36.550Z,0.85
2023-04-11T19:41:15.541Z,0.82
2023-04-11T19:43:46.659Z,0.90
2023-04-11T19:46:16.496Z,0.90
2023-04-11T19:48:45.867Z,1.10
2023-04-11T19:51:14.057Z,1.10
2023-04-11T19:53:42.220Z,1.05
2023-04-11T19:56:15.376Z,1.02
2023-04-11T19:58:45.424Z,0.93
2023-04-11T20:01:14.491Z,0.70
2023-04-11T20:03:47.015Z,0.80
2023-04-11T20:06:17.826Z,0.80
2023-04-11T20:08:46.427Z,0.88
2023-04-11T20:11:18.394Z,0.80
2023-04-11T20:13:46.617Z,0.68
2023-04-11T20:16:14.503Z,0.80
2023-04-11T20:18:42.638Z,0.77
2023-04-11T20:21:13.283Z,0.90
2023-04-11T20:23:42.665Z,1.03
2023-04-11T20:26:10.848Z,0.60
2023-04-11T20:28:38.267Z,0.60
2023-04-11T20:31:07.177Z,0.73
2023-04-11T20:33:34.646Z,1.17
2023-04-11T20:36:03.422Z,1.40
2023-04-11T20:38:31.512Z,1.05
2023-04-11T20:40:58.770Z,1.20
2023-04-11T20:43:26.705Z,1.10
2023-04-11T20:45:53.884Z,1.00
2023-04-11T20:48:21.684Z,1.00
2023-04-11T20:50:49.049Z,0.75
2023-04-11T20:53:16.601Z,0.60
2023-04-11T20:55:43.803Z,0.90
2023-04-11T20:58:12.062Z,0.70
2023-04-11T21:00:40.822Z,0.85
2023-04-11T21:03:08.381Z,0.55
2023-04-11T21:05:36.002Z,0.73
2023-04-11T21:08:04.025Z,0.90
2023-04-11T21:10:31.671Z,0.80
2023-04-11T21:12:58.840Z,0.80
2023-04-11T21:15:26.380Z,0.70
2023-04-11T21:17:53.648Z,0.90
2023-04-11T21:20:22.399Z,0.82
2023-04-11T21:22:53.974Z,0.90
2023-04-11T21:25:21.890Z,1.05
2023-04-11T21:27:50.070Z,1.08
2023-04-11T21:30:17.734Z,1.10
2023-04-11T21:32:45.097Z,0.90
2023-04-11T21:35:12.903Z,0.90
2023-04-11T21:37:40.280Z,0.70
2023-04-11T21:40:08.378Z,0.90
2023-04-11T21:42:35.842Z,1.05
2023-04-11T21:45:03.521Z,0.75
2023-04-11T21:47:31.055Z,0.70
2023-04-11T21:49:58.321Z,0.60
2023-04-11T21:52:25.834Z,1.30
2023-04-11T21:54:53.065Z,0.98
2023-04-11T21:57:20.408Z,0.68
2023-04-11T21:59:47.895Z,0.70
2023-04-11T22:02:15.213Z,0.60
2023-04-11T22:04:56.417Z,0.50
2023-04-11T22:07:33.162Z,1.33
2023-04-11T22:10:09.379Z,0.63
2023-04-11T22:12:37.301Z,0.60
2023-04-11T22:15:05.463Z,0.85
2023-04-11T22:17:33.015Z,0.60
2023-04-11T22:20:00.703Z,0.52
2023-04-11T22:22:29.131Z,0.40
2023-04-11T22:24:58.004Z,0.50
2023-04-11T22:27:29.715Z,0.50
2023-04-11T22:29:56.884Z,0.40
2023-04-11T22:32:24.493Z,0.40
2023-04-11T22:34:51.879Z,0.60
2023-04-11T22:37:19.001Z,0.40
2023-04-11T22:39:46.863Z,0.40
2023-04-11T22:42:14.167Z,0.35
2023-04-11T22:44:51.307Z,0.55
2023-04-11T22:47:21.986Z,0.60
2023-04-11T22:50:40.793Z,0.33
2023-04-11T22:53:09.613Z,0.40
2023-04-11T22:55:37.054Z,0.60
2023-04-11T22:58:04.464Z,0.32
2023-04-11T23:00:38.307Z,0.35
2023-04-11T23:03:07.610Z,0.40
2023-04-11T23:05:39.745Z,0.52
2023-04-11T23:08:10.566Z,0.50
2023-04-11T23:10:38.784Z,0.70
2023-04-11T23:13:05.989Z,0.73
2023-04-11T23:15:33.278Z,0.70
2023-04-11T23:18:01.002Z,0.60
2023-04-11T23:20:29.553Z,0.50
2023-04-11T23:22:58.576Z,0.68
2023-04-11T23:25:26.643Z,0.60
2023-04-11T23:27:54.087Z,0.60
2023-04-11T23:30:21.283Z,0.60
2023-04-11T23:32:48.531Z,0.52
2023-04-11T23:35:19.498Z,0.50
2023-04-11T23:37:47.387Z,0.50
2023-04-11T23:40:14.956Z,0.50
2023-04-11T23:42:42.512Z,0.32
2023-04-11T23:45:11.356Z,0.88
2023-04-11T23:47:38.761Z,0.50
2023-04-11T23:50:06.324Z,0.50
2023-04-11T23:52:34.486Z,0.30
2023-04-11T23:55:01.718Z,0.50
2023-04-11T23:57:30.671Z,0.45
2023-04-11T23:59:58.421Z,0.50
